sensor_id;sensor_type;location;lat;lon;timestamp;P1;durP1;ratioP1;P2;durP2;ratioP2
53022;SDS011;38913;44.338;11.206;2023-11-21T00:00:05;26.37;;;19.57;;
53022;SDS011;38913;44.338;11.206;2023-11-21T00:02:38;26.30;;;20.02;;
53022;SDS011;38913;44.338;11.206;2023-11-21T00:05:11;27.45;;;19.98;;
53022;SDS011;38913;44.338;11.206;2023-11-21T00:07:50;25.35;;;18.75;;
53022;SDS011;38913;44.338;11.206;2023-11-21T00:10:18;28.08;;;20.45;;
53022;SDS011;38913;44.338;11.206;2023-11-21T00:12:44;52.40;;;32.95;;
53022;SDS011;38913;44.338;11.206;2023-11-21T00:15:09;31.20;;;22.65;;
53022;SDS011;38913;44.338;11.206;2023-11-21T00:17:39;29.08;;;21.35;;
53022;SDS011;38913;44.338;11.206;2023-11-21T00:20:06;27.80;;;21.08;;
53022;SDS011;38913;44.338;11.206;2023-11-21T00:22:34;35.38;;;25.05;;
53022;SDS011;38913;44.338;11.206;2023-11-21T00:25:00;30.05;;;21.90;;
53022;SDS011;38913;44.338;11.206;2023-11-21T00:27:26;26.15;;;19.42;;
53022;SDS011;38913;44.338;11.206;2023-11-21T00:29:54;40.92;;;29.52;;
53022;SDS011;38913;44.338;11.206;2023-11-21T00:32:20;27.50;;;20.50;;
53022;SDS011;38913;44.338;11.206;2023-11-21T00:34:46;31.13;;;21.05;;
53022;SDS011;38913;44.338;11.206;2023-11-21T00:37:12;31.55;;;21.45;;
53022;SDS011;38913;44.338;11.206;2023-11-21T00:39:38;30.83;;;22.30;;
53022;SDS011;38913;44.338;11.206;2023-11-21T00:42:06;29.05;;;21.60;;
53022;SDS011;38913;44.338;11.206;2023-11-21T00:44:33;27.58;;;20.95;;
53022;SDS011;38913;44.338;11.206;2023-11-21T00:47:01;28.05;;;20.67;;
53022;SDS011;38913;44.338;11.206;2023-11-21T00:49:30;31.83;;;21.65;;
53022;SDS011;38913;44.338;11.206;2023-11-21T00:52:06;31.27;;;22.85;;
53022;SDS011;38913;44.338;11.206;2023-11-21T00:54:34;30.73;;;23.05;;
53022;SDS011;38913;44.338;11.206;2023-11-21T00:56:59;29.10;;;22.05;;
53022;SDS011;38913;44.338;11.206;2023-11-21T00:59:26;33.50;;;23.35;;
53022;SDS011;38913;44.338;11.206;2023-11-21T01:01:52;28.80;;;22.23;;
53022;SDS011;38913;44.338;11.206;2023-11-21T01:04:21;29.17;;;21.88;;
53022;SDS011;38913;44.338;11.206;2023-11-21T01:06:47;28.83;;;21.73;;
53022;SDS011;38913;44.338;11.206;2023-11-21T01:09:14;38.20;;;27.33;;
53022;SDS011;38913;44.338;11.206;2023-11-21T01:11:39;40.17;;;26.02;;
53022;SDS011;38913;44.338;11.206;2023-11-21T01:14:07;32.65;;;22.70;;
53022;SDS011;38913;44.338;11.206;2023-11-21T01:16:38;28.58;;;21.88;;
53022;SDS011;38913;44.338;11.206;2023-11-21T01:19:04;31.35;;;22.25;;
53022;SDS011;38913;44.338;11.206;2023-11-21T01:21:30;34.08;;;22.25;;
53022;SDS011;38913;44.338;11.206;2023-11-21T01:23:55;34.70;;;23.05;;
53022;SDS011;38913;44.338;11.206;2023-11-21T01:26:21;29.98;;;22.00;;
53022;SDS011;38913;44.338;11.206;2023-11-21T01:28:47;29.98;;;21.83;;
53022;SDS011;38913;44.338;11.206;2023-11-21T01:31:18;32.05;;;22.90;;
53022;SDS011;38913;44.338;11.206;2023-11-21T01:33:49;45.10;;;29.58;;
53022;SDS011;38913;44.338;11.206;2023-11-21T01:36:15;34.55;;;24.27;;
53022;SDS011;38913;44.338;11.206;2023-11-21T01:38:42;34.53;;;22.75;;
53022;SDS011;38913;44.338;11.206;2023-11-21T01:41:08;34.65;;;24.90;;
53022;SDS011;38913;44.338;11.206;2023-11-21T01:43:38;32.75;;;24.60;;
53022;SDS011;38913;44.338;11.206;2023-11-21T01:46:05;36.60;;;24.70;;
53022;SDS011;38913;44.338;11.206;2023-11-21T01:48:35;36.63;;;25.10;;
53022;SDS011;38913;44.338;11.206;2023-11-21T01:51:01;38.05;;;27.67;;
53022;SDS011;38913;44.338;11.206;2023-11-21T01:53:27;46.70;;;30.38;;
53022;SDS011;38913;44.338;11.206;2023-11-21T01:55:55;41.45;;;27.35;;
53022;SDS011;38913;44.338;11.206;2023-11-21T01:58:20;36.33;;;25.73;;
53022;SDS011;38913;44.338;11.206;2023-11-21T02:00:48;38.38;;;27.35;;
53022;SDS011;38913;44.338;11.206;2023-11-21T02:03:16;51.90;;;34.05;;
53022;SDS011;38913;44.338;11.206;2023-11-21T02:05:41;39.92;;;27.33;;
53022;SDS011;38913;44.338;11.206;2023-11-21T02:08:09;41.58;;;28.05;;
53022;SDS011;38913;44.338;11.206;2023-11-21T02:10:36;40.67;;;28.75;;
53022;SDS011;38913;44.338;11.206;2023-11-21T02:13:03;41.65;;;28.85;;
53022;SDS011;38913;44.338;11.206;2023-11-21T02:15:30;42.47;;;29.85;;
53022;SDS011;38913;44.338;11.206;2023-11-21T02:17:56;43.65;;;28.88;;
53022;SDS011;38913;44.338;11.206;2023-11-21T02:20:25;45.05;;;30.48;;
53022;SDS011;38913;44.338;11.206;2023-11-21T02:22:52;47.72;;;30.77;;
53022;SDS011;38913;44.338;11.206;2023-11-21T02:25:29;46.58;;;30.98;;
53022;SDS011;38913;44.338;11.206;2023-11-21T02:27:56;41.60;;;30.05;;
53022;SDS011;38913;44.338;11.206;2023-11-21T02:30:22;42.47;;;28.48;;
53022;SDS011;38913;44.338;11.206;2023-11-21T02:32:48;44.35;;;30.05;;
53022;SDS011;38913;44.338;11.206;2023-11-21T02:35:16;41.92;;;30.42;;
53022;SDS011;38913;44.338;11.206;2023-11-21T02:37:42;48.55;;;32.25;;
53022;SDS011;38913;44.338;11.206;2023-11-21T02:40:10;46.47;;;31.30;;
53022;SDS011;38913;44.338;11.206;2023-11-21T02:42:37;46.42;;;30.40;;
53022;SDS011;38913;44.338;11.206;2023-11-21T02:45:03;47.83;;;32.78;;
53022;SDS011;38913;44.338;11.206;2023-11-21T02:47:31;45.80;;;30.42;;
53022;SDS011;38913;44.338;11.206;2023-11-21T02:49:58;47.60;;;31.90;;
53022;SDS011;38913;44.338;11.206;2023-11-21T02:52:24;49.75;;;31.73;;
53022;SDS011;38913;44.338;11.206;2023-11-21T02:54:52;49.45;;;31.08;;
53022;SDS011;38913;44.338;11.206;2023-11-21T02:57:20;47.35;;;30.83;;
53022;SDS011;38913;44.338;11.206;2023-11-21T02:59:48;47.60;;;31.00;;
53022;SDS011;38913;44.338;11.206;2023-11-21T03:02:14;49.40;;;32.67;;
53022;SDS011;38913;44.338;11.206;2023-11-21T03:04:42;48.78;;;31.50;;
53022;SDS011;38913;44.338;11.206;2023-11-21T03:07:09;48.70;;;31.17;;
53022;SDS011;38913;44.338;11.206;2023-11-21T03:09:34;47.33;;;31.90;;
53022;SDS011;38913;44.338;11.206;2023-11-21T03:12:01;43.42;;;30.45;;
53022;SDS011;38913;44.338;11.206;2023-11-21T03:14:28;47.65;;;31.67;;
53022;SDS011;38913;44.338;11.206;2023-11-21T03:16:54;46.67;;;31.60;;
53022;SDS011;38913;44.338;11.206;2023-11-21T03:19:22;48.05;;;32.15;;
53022;SDS011;38913;44.338;11.206;2023-11-21T03:21:51;48.35;;;32.17;;
53022;SDS011;38913;44.338;11.206;2023-11-21T03:24:20;50.22;;;31.33;;
53022;SDS011;38913;44.338;11.206;2023-11-21T03:26:51;65.43;;;41.53;;
53022;SDS011;38913;44.338;11.206;2023-11-21T03:29:18;49.97;;;33.50;;
53022;SDS011;38913;44.338;11.206;2023-11-21T03:31:44;45.30;;;31.20;;
53022;SDS011;38913;44.338;11.206;2023-11-21T03:34:14;46.97;;;31.10;;
53022;SDS011;38913;44.338;11.206;2023-11-21T03:36:41;43.88;;;30.65;;
53022;SDS011;38913;44.338;11.206;2023-11-21T03:39:08;49.05;;;32.10;;
53022;SDS011;38913;44.338;11.206;2023-11-21T03:41:33;43.40;;;31.17;;
53022;SDS011;38913;44.338;11.206;2023-11-21T03:44:00;48.15;;;32.15;;
53022;SDS011;38913;44.338;11.206;2023-11-21T03:46:32;46.65;;;31.73;;
53022;SDS011;38913;44.338;11.206;2023-11-21T03:48:59;100.95;;;54.75;;
53022;SDS011;38913;44.338;11.206;2023-11-21T03:51:27;52.47;;;34.45;;
53022;SDS011;38913;44.338;11.206;2023-11-21T03:53:54;52.45;;;32.75;;
53022;SDS011;38913;44.338;11.206;2023-11-21T03:56:22;46.47;;;31.10;;
53022;SDS011;38913;44.338;11.206;2023-11-21T03:58:48;44.92;;;31.10;;
53022;SDS011;38913;44.338;11.206;2023-11-21T04:01:23;48.53;;;31.30;;
53022;SDS011;38913;44.338;11.206;2023-11-21T04:03:50;45.20;;;30.15;;
53022;SDS011;38913;44.338;11.206;2023-11-21T04:06:17;47.28;;;30.95;;
53022;SDS011;38913;44.338;11.206;2023-11-21T04:08:44;45.35;;;29.58;;
53022;SDS011;38913;44.338;11.206;2023-11-21T04:11:11;44.63;;;30.42;;
53022;SDS011;38913;44.338;11.206;2023-11-21T04:13:42;45.88;;;31.13;;
53022;SDS011;38913;44.338;11.206;2023-11-21T04:16:09;48.95;;;31.80;;
53022;SDS011;38913;44.338;11.206;2023-11-21T04:18:39;48.53;;;32.03;;
53022;SDS011;38913;44.338;11.206;2023-11-21T04:21:07;48.47;;;31.05;;
53022;SDS011;38913;44.338;11.206;2023-11-21T04:23:35;50.00;;;32.20;;
53022;SDS011;38913;44.338;11.206;2023-11-21T04:26:02;44.72;;;30.23;;
53022;SDS011;38913;44.338;11.206;2023-11-21T04:28:29;46.15;;;30.77;;
53022;SDS011;38913;44.338;11.206;2023-11-21T04:30:55;46.83;;;31.05;;
53022;SDS011;38913;44.338;11.206;2023-11-21T04:33:21;50.15;;;32.03;;
53022;SDS011;38913;44.338;11.206;2023-11-21T04:35:49;50.95;;;32.00;;
53022;SDS011;38913;44.338;11.206;2023-11-21T04:38:16;57.60;;;35.08;;
53022;SDS011;38913;44.338;11.206;2023-11-21T04:40:42;45.17;;;30.60;;
53022;SDS011;38913;44.338;11.206;2023-11-21T04:43:08;46.22;;;30.85;;
53022;SDS011;38913;44.338;11.206;2023-11-21T04:45:35;44.78;;;31.08;;
53022;SDS011;38913;44.338;11.206;2023-11-21T04:48:07;48.92;;;30.65;;
53022;SDS011;38913;44.338;11.206;2023-11-21T04:50:34;46.45;;;30.55;;
53022;SDS011;38913;44.338;11.206;2023-11-21T04:53:01;45.47;;;29.88;;
53022;SDS011;38913;44.338;11.206;2023-11-21T04:55:27;46.00;;;31.67;;
53022;SDS011;38913;44.338;11.206;2023-11-21T04:57:54;45.63;;;30.38;;
53022;SDS011;38913;44.338;11.206;2023-11-21T05:00:20;47.75;;;31.27;;
53022;SDS011;38913;44.338;11.206;2023-11-21T05:02:46;46.20;;;31.45;;
53022;SDS011;38913;44.338;11.206;2023-11-21T05:05:11;48.50;;;31.08;;
53022;SDS011;38913;44.338;11.206;2023-11-21T05:07:38;44.95;;;30.40;;
53022;SDS011;38913;44.338;11.206;2023-11-21T05:10:07;48.55;;;31.15;;
53022;SDS011;38913;44.338;11.206;2023-11-21T05:12:34;48.40;;;31.35;;
53022;SDS011;38913;44.338;11.206;2023-11-21T05:15:04;47.80;;;29.73;;
53022;SDS011;38913;44.338;11.206;2023-11-21T05:17:37;46.38;;;30.42;;
53022;SDS011;38913;44.338;11.206;2023-11-21T05:20:11;44.17;;;30.00;;
53022;SDS011;38913;44.338;11.206;2023-11-21T05:22:40;48.10;;;30.90;;
53022;SDS011;38913;44.338;11.206;2023-11-21T05:25:06;46.65;;;30.55;;
53022;SDS011;38913;44.338;11.206;2023-11-21T05:27:36;49.03;;;32.72;;
53022;SDS011;38913;44.338;11.206;2023-11-21T05:30:04;43.67;;;30.38;;
53022;SDS011;38913;44.338;11.206;2023-11-21T05:32:32;44.17;;;29.20;;
53022;SDS011;38913;44.338;11.206;2023-11-21T05:35:01;44.33;;;29.23;;
53022;SDS011;38913;44.338;11.206;2023-11-21T05:37:28;44.03;;;29.52;;
53022;SDS011;38913;44.338;11.206;2023-11-21T05:39:53;47.38;;;30.75;;
53022;SDS011;38913;44.338;11.206;2023-11-21T05:42:23;48.38;;;31.38;;
53022;SDS011;38913;44.338;11.206;2023-11-21T05:44:54;51.03;;;31.38;;
53022;SDS011;38913;44.338;11.206;2023-11-21T05:47:24;47.60;;;30.80;;
53022;SDS011;38913;44.338;11.206;2023-11-21T05:49:53;48.22;;;30.45;;
53022;SDS011;38913;44.338;11.206;2023-11-21T05:52:19;48.10;;;29.40;;
53022;SDS011;38913;44.338;11.206;2023-11-21T05:54:47;42.25;;;27.90;;
53022;SDS011;38913;44.338;11.206;2023-11-21T05:57:14;45.60;;;30.00;;
53022;SDS011;38913;44.338;11.206;2023-11-21T05:59:41;51.33;;;31.98;;
53022;SDS011;38913;44.338;11.206;2023-11-21T06:02:07;46.08;;;30.60;;
53022;SDS011;38913;44.338;11.206;2023-11-21T06:04:34;51.33;;;31.95;;
53022;SDS011;38913;44.338;11.206;2023-11-21T06:07:00;48.17;;;30.63;;
53022;SDS011;38913;44.338;11.206;2023-11-21T06:09:29;49.95;;;31.08;;
53022;SDS011;38913;44.338;11.206;2023-11-21T06:11:59;45.95;;;30.38;;
53022;SDS011;38913;44.338;11.206;2023-11-21T06:14:25;49.58;;;31.20;;
53022;SDS011;38913;44.338;11.206;2023-11-21T06:16:53;47.35;;;31.05;;
53022;SDS011;38913;44.338;11.206;2023-11-21T06:19:21;49.80;;;30.23;;
53022;SDS011;38913;44.338;11.206;2023-11-21T06:21:48;48.72;;;30.60;;
53022;SDS011;38913;44.338;11.206;2023-11-21T06:24:16;50.72;;;32.33;;
53022;SDS011;38913;44.338;11.206;2023-11-21T06:26:42;47.55;;;31.70;;
53022;SDS011;38913;44.338;11.206;2023-11-21T06:29:13;47.15;;;30.92;;
53022;SDS011;38913;44.338;11.206;2023-11-21T06:31:41;50.63;;;32.63;;
53022;SDS011;38913;44.338;11.206;2023-11-21T06:34:07;47.45;;;31.60;;
53022;SDS011;38913;44.338;11.206;2023-11-21T06:36:36;46.88;;;29.90;;
53022;SDS011;38913;44.338;11.206;2023-11-21T06:39:02;45.78;;;29.77;;
53022;SDS011;38913;44.338;11.206;2023-11-21T06:41:34;47.83;;;30.20;;
53022;SDS011;38913;44.338;11.206;2023-11-21T06:43:59;44.80;;;30.00;;
53022;SDS011;38913;44.338;11.206;2023-11-21T06:46:24;46.53;;;31.40;;
53022;SDS011;38913;44.338;11.206;2023-11-21T06:48:52;48.00;;;29.85;;
53022;SDS011;38913;44.338;11.206;2023-11-21T06:51:18;52.83;;;31.95;;
53022;SDS011;38913;44.338;11.206;2023-11-21T06:53:45;48.88;;;32.08;;
53022;SDS011;38913;44.338;11.206;2023-11-21T06:56:18;50.08;;;32.60;;
53022;SDS011;38913;44.338;11.206;2023-11-21T06:58:45;52.47;;;32.60;;
53022;SDS011;38913;44.338;11.206;2023-11-21T07:01:13;48.15;;;32.42;;
53022;SDS011;38913;44.338;11.206;2023-11-21T07:03:41;49.85;;;31.92;;
53022;SDS011;38913;44.338;11.206;2023-11-21T07:06:08;48.30;;;31.15;;
53022;SDS011;38913;44.338;11.206;2023-11-21T07:08:35;47.65;;;31.15;;
53022;SDS011;38913;44.338;11.206;2023-11-21T07:11:00;50.45;;;30.90;;
53022;SDS011;38913;44.338;11.206;2023-11-21T07:13:26;48.50;;;31.47;;
53022;SDS011;38913;44.338;11.206;2023-11-21T07:15:51;49.42;;;31.52;;
53022;SDS011;38913;44.338;11.206;2023-11-21T07:18:18;54.75;;;33.60;;
53022;SDS011;38913;44.338;11.206;2023-11-21T07:20:44;51.70;;;33.08;;
53022;SDS011;38913;44.338;11.206;2023-11-21T07:23:13;54.03;;;33.55;;
53022;SDS011;38913;44.338;11.206;2023-11-21T07:25:39;50.63;;;32.85;;
53022;SDS011;38913;44.338;11.206;2023-11-21T07:28:07;50.92;;;31.95;;
53022;SDS011;38913;44.338;11.206;2023-11-21T07:30:34;58.20;;;35.42;;
53022;SDS011;38913;44.338;11.206;2023-11-21T07:33:02;52.30;;;34.25;;
53022;SDS011;38913;44.338;11.206;2023-11-21T07:35:29;54.90;;;34.38;;
53022;SDS011;38913;44.338;11.206;2023-11-21T07:37:55;54.28;;;34.17;;
53022;SDS011;38913;44.338;11.206;2023-11-21T07:40:22;52.28;;;33.47;;
53022;SDS011;38913;44.338;11.206;2023-11-21T07:42:48;54.35;;;32.72;;
53022;SDS011;38913;44.338;11.206;2023-11-21T07:45:15;50.38;;;31.88;;
53022;SDS011;38913;44.338;11.206;2023-11-21T07:47:43;62.80;;;37.05;;
53022;SDS011;38913;44.338;11.206;2023-11-21T07:50:13;55.75;;;33.78;;
53022;SDS011;38913;44.338;11.206;2023-11-21T07:52:40;54.78;;;33.60;;
53022;SDS011;38913;44.338;11.206;2023-11-21T07:55:07;55.92;;;33.85;;
53022;SDS011;38913;44.338;11.206;2023-11-21T07:57:37;52.83;;;34.80;;
53022;SDS011;38913;44.338;11.206;2023-11-21T08:00:05;49.95;;;33.17;;
53022;SDS011;38913;44.338;11.206;2023-11-21T08:02:35;53.78;;;33.30;;
53022;SDS011;38913;44.338;11.206;2023-11-21T08:05:02;53.10;;;33.17;;
53022;SDS011;38913;44.338;11.206;2023-11-21T08:07:28;52.88;;;33.47;;
53022;SDS011;38913;44.338;11.206;2023-11-21T08:09:54;52.65;;;33.38;;
53022;SDS011;38913;44.338;11.206;2023-11-21T08:12:22;53.10;;;33.45;;
53022;SDS011;38913;44.338;11.206;2023-11-21T08:14:59;49.90;;;32.60;;
53022;SDS011;38913;44.338;11.206;2023-11-21T08:17:27;49.42;;;31.75;;
53022;SDS011;38913;44.338;11.206;2023-11-21T08:19:55;50.88;;;32.60;;
53022;SDS011;38913;44.338;11.206;2023-11-21T08:22:24;100.10;;;54.58;;
53022;SDS011;38913;44.338;11.206;2023-11-21T08:24:53;57.90;;;35.58;;
53022;SDS011;38913;44.338;11.206;2023-11-21T08:27:20;73.07;;;40.03;;
53022;SDS011;38913;44.338;11.206;2023-11-21T08:29:48;61.60;;;38.65;;
53022;SDS011;38913;44.338;11.206;2023-11-21T08:32:14;64.68;;;38.83;;
53022;SDS011;38913;44.338;11.206;2023-11-21T08:34:41;56.60;;;34.88;;
53022;SDS011;38913;44.338;11.206;2023-11-21T08:37:14;56.92;;;36.38;;
53022;SDS011;38913;44.338;11.206;2023-11-21T08:39:41;56.22;;;34.15;;
53022;SDS011;38913;44.338;11.206;2023-11-21T08:42:07;54.45;;;34.70;;
53022;SDS011;38913;44.338;11.206;2023-11-21T08:44:35;54.60;;;34.13;;
53022;SDS011;38913;44.338;11.206;2023-11-21T08:47:02;50.65;;;32.00;;
53022;SDS011;38913;44.338;11.206;2023-11-21T08:49:28;54.00;;;33.58;;
53022;SDS011;38913;44.338;11.206;2023-11-21T08:51:56;50.63;;;32.30;;
53022;SDS011;38913;44.338;11.206;2023-11-21T08:54:33;55.17;;;32.63;;
53022;SDS011;38913;44.338;11.206;2023-11-21T08:57:01;52.90;;;33.20;;
53022;SDS011;38913;44.338;11.206;2023-11-21T08:59:28;48.95;;;30.67;;
53022;SDS011;38913;44.338;11.206;2023-11-21T09:01:54;45.83;;;29.77;;
53022;SDS011;38913;44.338;11.206;2023-11-21T09:04:19;52.20;;;30.90;;
53022;SDS011;38913;44.338;11.206;2023-11-21T09:06:50;50.05;;;31.05;;
53022;SDS011;38913;44.338;11.206;2023-11-21T09:09:17;48.70;;;31.00;;
53022;SDS011;38913;44.338;11.206;2023-11-21T09:11:44;49.17;;;32.22;;
53022;SDS011;38913;44.338;11.206;2023-11-21T09:14:11;50.60;;;31.83;;
53022;SDS011;38913;44.338;11.206;2023-11-21T09:16:43;49.50;;;31.75;;
53022;SDS011;38913;44.338;11.206;2023-11-21T09:19:10;46.20;;;31.40;;
53022;SDS011;38913;44.338;11.206;2023-11-21T09:21:41;52.78;;;32.33;;
53022;SDS011;38913;44.338;11.206;2023-11-21T09:24:07;50.42;;;32.33;;
53022;SDS011;38913;44.338;11.206;2023-11-21T09:26:36;54.28;;;33.22;;
53022;SDS011;38913;44.338;11.206;2023-11-21T09:29:01;50.03;;;33.10;;
53022;SDS011;38913;44.338;11.206;2023-11-21T09:31:35;48.33;;;32.47;;
53022;SDS011;38913;44.338;11.206;2023-11-21T09:34:02;54.42;;;32.80;;
53022;SDS011;38913;44.338;11.206;2023-11-21T09:36:29;56.58;;;33.80;;
53022;SDS011;38913;44.338;11.206;2023-11-21T09:38:59;53.42;;;33.67;;
53022;SDS011;38913;44.338;11.206;2023-11-21T09:41:37;56.67;;;33.67;;
53022;SDS011;38913;44.338;11.206;2023-11-21T09:44:06;52.13;;;32.05;;
53022;SDS011;38913;44.338;11.206;2023-11-21T09:46:53;53.58;;;32.58;;
53022;SDS011;38913;44.338;11.206;2023-11-21T09:49:20;54.58;;;33.00;;
53022;SDS011;38913;44.338;11.206;2023-11-21T09:51:52;56.55;;;34.05;;
53022;SDS011;38913;44.338;11.206;2023-11-21T09:54:30;57.33;;;34.15;;
53022;SDS011;38913;44.338;11.206;2023-11-21T09:56:59;60.88;;;35.53;;
53022;SDS011;38913;44.338;11.206;2023-11-21T09:59:27;59.70;;;35.70;;
53022;SDS011;38913;44.338;11.206;2023-11-21T10:01:55;60.97;;;35.67;;
53022;SDS011;38913;44.338;11.206;2023-11-21T10:04:28;60.13;;;35.33;;
53022;SDS011;38913;44.338;11.206;2023-11-21T10:06:55;57.05;;;34.03;;
53022;SDS011;38913;44.338;11.206;2023-11-21T10:09:25;57.30;;;33.28;;
53022;SDS011;38913;44.338;11.206;2023-11-21T10:11:53;53.42;;;32.45;;
53022;SDS011;38913;44.338;11.206;2023-11-21T10:14:23;56.20;;;32.17;;
53022;SDS011;38913;44.338;11.206;2023-11-21T10:16:51;55.92;;;33.92;;
53022;SDS011;38913;44.338;11.206;2023-11-21T10:19:38;58.05;;;35.38;;
53022;SDS011;38913;44.338;11.206;2023-11-21T10:22:05;52.03;;;31.20;;
53022;SDS011;38913;44.338;11.206;2023-11-21T10:24:33;51.25;;;30.60;;
53022;SDS011;38913;44.338;11.206;2023-11-21T10:27:04;45.67;;;29.30;;
53022;SDS011;38913;44.338;11.206;2023-11-21T10:29:31;45.22;;;28.70;;
53022;SDS011;38913;44.338;11.206;2023-11-21T10:32:05;44.25;;;27.48;;
53022;SDS011;38913;44.338;11.206;2023-11-21T10:34:32;48.78;;;30.60;;
53022;SDS011;38913;44.338;11.206;2023-11-21T10:37:07;46.33;;;31.15;;
53022;SDS011;38913;44.338;11.206;2023-11-21T10:39:42;49.47;;;32.20;;
53022;SDS011;38913;44.338;11.206;2023-11-21T10:42:10;47.20;;;32.22;;
53022;SDS011;38913;44.338;11.206;2023-11-21T10:44:37;47.42;;;32.55;;
53022;SDS011;38913;44.338;11.206;2023-11-21T10:47:02;50.00;;;32.80;;
53022;SDS011;38913;44.338;11.206;2023-11-21T10:49:28;51.15;;;33.40;;
53022;SDS011;38913;44.338;11.206;2023-11-21T10:51:56;52.00;;;32.70;;
53022;SDS011;38913;44.338;11.206;2023-11-21T10:54:24;47.72;;;31.17;;
53022;SDS011;38913;44.338;11.206;2023-11-21T10:56:53;47.38;;;30.40;;
53022;SDS011;38913;44.338;11.206;2023-11-21T10:59:19;44.80;;;28.63;;
53022;SDS011;38913;44.338;11.206;2023-11-21T11:01:51;36.92;;;24.42;;
53022;SDS011;38913;44.338;11.206;2023-11-21T11:04:19;35.88;;;23.08;;
53022;SDS011;38913;44.338;11.206;2023-11-21T11:07:02;35.58;;;23.48;;
53022;SDS011;38913;44.338;11.206;2023-11-21T11:09:28;40.08;;;25.73;;
53022;SDS011;38913;44.338;11.206;2023-11-21T11:11:55;40.97;;;25.02;;
53022;SDS011;38913;44.338;11.206;2023-11-21T11:14:22;41.97;;;25.33;;
53022;SDS011;38913;44.338;11.206;2023-11-21T11:16:53;40.13;;;25.25;;
53022;SDS011;38913;44.338;11.206;2023-11-21T11:19:20;44.20;;;25.88;;
53022;SDS011;38913;44.338;11.206;2023-11-21T11:35:24;48.58;;;29.67;;
53022;SDS011;38913;44.338;11.206;2023-11-21T11:38:01;48.13;;;28.60;;
53022;SDS011;38913;44.338;11.206;2023-11-21T11:40:41;46.03;;;28.88;;
53022;SDS011;38913;44.338;11.206;2023-11-21T11:43:09;45.40;;;28.58;;
53022;SDS011;38913;44.338;11.206;2023-11-21T11:45:36;45.75;;;28.23;;
53022;SDS011;38913;44.338;11.206;2023-11-21T11:48:06;46.05;;;28.27;;
53022;SDS011;38913;44.338;11.206;2023-11-21T11:50:32;46.90;;;28.35;;
53022;SDS011;38913;44.338;11.206;2023-11-21T11:53:12;39.35;;;25.17;;
53022;SDS011;38913;44.338;11.206;2023-11-21T11:55:38;40.38;;;25.05;;
53022;SDS011;38913;44.338;11.206;2023-11-21T11:58:07;41.25;;;24.35;;
53022;SDS011;38913;44.338;11.206;2023-11-21T12:00:36;36.15;;;23.05;;
53022;SDS011;38913;44.338;11.206;2023-11-21T12:03:06;39.35;;;22.98;;
53022;SDS011;38913;44.338;11.206;2023-11-21T12:05:34;35.97;;;22.80;;
53022;SDS011;38913;44.338;11.206;2023-11-21T12:08:05;32.95;;;21.75;;
53022;SDS011;38913;44.338;11.206;2023-11-21T12:10:36;36.75;;;22.80;;
53022;SDS011;38913;44.338;11.206;2023-11-21T12:13:06;37.25;;;23.63;;
53022;SDS011;38913;44.338;11.206;2023-11-21T12:15:48;39.72;;;24.52;;
53022;SDS011;38913;44.338;11.206;2023-11-21T12:18:14;36.75;;;22.67;;
53022;SDS011;38913;44.338;11.206;2023-11-21T12:20:40;37.83;;;23.17;;
53022;SDS011;38913;44.338;11.206;2023-11-21T12:23:09;38.67;;;24.65;;
53022;SDS011;38913;44.338;11.206;2023-11-21T12:25:37;40.50;;;24.65;;
53022;SDS011;38913;44.338;11.206;2023-11-21T12:28:06;39.30;;;25.13;;
53022;SDS011;38913;44.338;11.206;2023-11-21T12:30:33;36.72;;;23.80;;
53022;SDS011;38913;44.338;11.206;2023-11-21T12:33:02;37.47;;;24.05;;
53022;SDS011;38913;44.338;11.206;2023-11-21T12:35:30;39.72;;;24.00;;
53022;SDS011;38913;44.338;11.206;2023-11-21T12:38:01;40.78;;;25.30;;
53022;SDS011;38913;44.338;11.206;2023-11-21T12:40:31;41.25;;;26.35;;
53022;SDS011;38913;44.338;11.206;2023-11-21T12:42:59;44.38;;;27.60;;
53022;SDS011;38913;44.338;11.206;2023-11-21T12:45:28;43.50;;;26.95;;
53022;SDS011;38913;44.338;11.206;2023-11-21T12:50:27;44.10;;;27.92;;
53022;SDS011;38913;44.338;11.206;2023-11-21T12:52:58;45.55;;;28.45;;
53022;SDS011;38913;44.338;11.206;2023-11-21T12:55:24;45.05;;;28.48;;
53022;SDS011;38913;44.338;11.206;2023-11-21T12:57:52;46.85;;;27.35;;
53022;SDS011;38913;44.338;11.206;2023-11-21T13:00:35;42.50;;;26.20;;
53022;SDS011;38913;44.338;11.206;2023-11-21T13:03:04;39.40;;;25.17;;
53022;SDS011;38913;44.338;11.206;2023-11-21T13:05:35;40.75;;;24.55;;
53022;SDS011;38913;44.338;11.206;2023-11-21T13:08:06;36.05;;;24.17;;
53022;SDS011;38913;44.338;11.206;2023-11-21T13:10:36;37.92;;;23.60;;
53022;SDS011;38913;44.338;11.206;2023-11-21T13:13:02;37.35;;;24.15;;
53022;SDS011;38913;44.338;11.206;2023-11-21T13:15:34;40.65;;;24.48;;
53022;SDS011;38913;44.338;11.206;2023-11-21T13:18:02;39.15;;;23.10;;
53022;SDS011;38913;44.338;11.206;2023-11-21T13:20:29;39.80;;;23.95;;
53022;SDS011;38913;44.338;11.206;2023-11-21T13:22:55;37.95;;;25.13;;
53022;SDS011;38913;44.338;11.206;2023-11-21T13:25:32;39.25;;;24.52;;
53022;SDS011;38913;44.338;11.206;2023-11-21T13:28:00;38.85;;;24.88;;
53022;SDS011;38913;44.338;11.206;2023-11-21T13:30:36;39.53;;;24.38;;
53022;SDS011;38913;44.338;11.206;2023-11-21T13:33:03;41.08;;;24.92;;
53022;SDS011;38913;44.338;11.206;2023-11-21T13:35:34;38.90;;;24.95;;
53022;SDS011;38913;44.338;11.206;2023-11-21T13:38:10;38.97;;;24.70;;
53022;SDS011;38913;44.338;11.206;2023-11-21T13:40:36;42.58;;;24.85;;
53022;SDS011;38913;44.338;11.206;2023-11-21T13:43:10;41.35;;;26.67;;
53022;SDS011;38913;44.338;11.206;2023-11-21T13:45:37;43.10;;;27.30;;
53022;SDS011;38913;44.338;11.206;2023-11-21T13:48:07;46.35;;;29.02;;
53022;SDS011;38913;44.338;11.206;2023-11-21T13:50:51;40.72;;;25.52;;
53022;SDS011;38913;44.338;11.206;2023-11-21T13:53:36;40.45;;;24.63;;
53022;SDS011;38913;44.338;11.206;2023-11-21T13:56:06;37.30;;;24.30;;
53022;SDS011;38913;44.338;11.206;2023-11-21T13:58:55;39.28;;;24.77;;
53022;SDS011;38913;44.338;11.206;2023-11-21T14:01:50;38.83;;;24.88;;
53022;SDS011;38913;44.338;11.206;2023-11-21T14:04:34;40.05;;;25.02;;
53022;SDS011;38913;44.338;11.206;2023-11-21T14:07:34;36.88;;;24.48;;
53022;SDS011;38913;44.338;11.206;2023-11-21T14:10:23;38.65;;;25.02;;
53022;SDS011;38913;44.338;11.206;2023-11-21T14:12:51;36.83;;;24.35;;
53022;SDS011;38913;44.338;11.206;2023-11-21T14:15:17;42.72;;;25.45;;
53022;SDS011;38913;44.338;11.206;2023-11-21T14:17:45;37.30;;;23.40;;
53022;SDS011;38913;44.338;11.206;2023-11-21T14:20:10;35.80;;;22.52;;
53022;SDS011;38913;44.338;11.206;2023-11-21T14:25:13;35.97;;;22.98;;
53022;SDS011;38913;44.338;11.206;2023-11-21T14:27:40;37.80;;;23.92;;
53022;SDS011;38913;44.338;11.206;2023-11-21T14:30:06;37.70;;;23.95;;
53022;SDS011;38913;44.338;11.206;2023-11-21T14:32:33;36.63;;;22.60;;
53022;SDS011;38913;44.338;11.206;2023-11-21T14:34:59;36.60;;;22.80;;